Meteo Giornale » Osservazioni meteo Gran Bretagna » Cranfield

ore: 12:50 - Osservazioni Meteo Cranfield
Lat. 52° 4' N Lon. 0° 37' W Alt. 111 metri s.l.m.

nuvoloso Europe/London

19 °C

Nuvoloso

Temp. 24 Ore

12 °C

19 °C

Ovest/Sud-Ovest

31.5 Km/h

Dew point 8 °C

Umidità 48 %

Visibilità  10 Km

Il sole sorge alle ore 05:18

Il sole tramonta alle ore 20:59

Data e Ora Cielo e Fenomeni T °C DP °C Um. % Pres. hPa Vis. km Vento km/h
Oggi h: 12:50 nuvoloso Nuvoloso 19 8 48 1009 10 O/SO 31.5
Oggi h: 12:20 nuvoloso Nuvoloso 17 8 55 1009 10 O/SO 33.3
Oggi h: 11:50 nuvoloso Nuvoloso 18 9 55 1009 10 O/SO 31.5
Oggi h: 11:20 nuvoloso Nuvoloso 17 10 63 1009 10 O/SO 29.6
Oggi h: 10:50 nuvoloso Nuvoloso 17 10 63 1009 10 O/SO 29.6
Oggi h: 10:20 poco_nuvoloso Poco Nuvoloso 16 10 67 1009 10 O/SO 29.6
Oggi h: 09:50 poco_nuvoloso Poco Nuvoloso 15 11 76 1009 10 O/SO 33.3
Oggi h: 09:20 poco_nuvoloso Poco Nuvoloso 15 11 76 1009 10 O/SO 31.5
Oggi h: 08:50 poco_nuvoloso Poco Nuvoloso 14 11 82 1009 10 SO 33.3
Oggi h: 08:20 poco_nuvoloso Poco Nuvoloso 13 11 87 1009 10 O/SO 25.9
Oggi h: 07:50 poco_nuvoloso Poco Nuvoloso 13 10 81 1008 10 SO 27.8
Oggi h: 07:20 sereno Sereno 12 10 87 1008 10 SO 25.9
Ieri h: 18:20 nuvoloso Nuvoloso 18 10 59 1005 10 O 35.2
Ieri h: 17:50 nuvoloso Nuvoloso 18 11 63 1004 10 SO 37
Ieri h: 17:20 molto_nuvoloso Molto Nuvoloso 18 11 63 1004 10 SO 38.8
Ieri h: 16:50 nuvoloso Nuvoloso 18 12 67 1004 10 SO 35.2
Ieri h: 16:20 nuvoloso Nuvoloso 19 12 63 1005 10 SO 37
Ieri h: 15:50 poco_nuvoloso Poco Nuvoloso 18 13 72 1005 10 SO 35.2
Ieri h: 15:20 nuvoloso Rovescio nelle Vicinanze 18 14 77 1005 10 S/SO 27.8
Ieri h: 14:50 molto_nuvoloso Rovescio nelle Vicinanze 17 14 82 1005 10 SO 25.9
Ieri h: 14:20 nuvoloso Nuvoloso 18 12 67 1005 10 SO 25.9
Ieri h: 13:50 poco_nuvoloso Poco Nuvoloso 19 12 63 1005 10 SO 25.9